sensor_id;sensor_type;location;lat;lon;timestamp;P1;durP1;ratioP1;P2;durP2;ratioP2
11711;SDS011;5912;51.034;6.984;2022-11-15T00:00:19;7.28;;;4.85;;
11711;SDS011;5912;51.034;6.984;2022-11-15T00:02:44;5.78;;;4.43;;
11711;SDS011;5912;51.034;6.984;2022-11-15T00:05:10;5.90;;;4.35;;
11711;SDS011;5912;51.034;6.984;2022-11-15T00:07:35;6.80;;;4.72;;
11711;SDS011;5912;51.034;6.984;2022-11-15T00:10:00;8.27;;;5.30;;
11711;SDS011;5912;51.034;6.984;2022-11-15T00:12:27;6.32;;;4.53;;
11711;SDS011;5912;51.034;6.984;2022-11-15T00:14:53;5.35;;;4.50;;
11711;SDS011;5912;51.034;6.984;2022-11-15T00:17:18;6.63;;;4.57;;
11711;SDS011;5912;51.034;6.984;2022-11-15T00:19:43;7.05;;;5.10;;
11711;SDS011;5912;51.034;6.984;2022-11-15T00:22:09;7.32;;;4.97;;
11711;SDS011;5912;51.034;6.984;2022-11-15T00:24:34;5.47;;;4.68;;
11711;SDS011;5912;51.034;6.984;2022-11-15T00:26:59;7.00;;;4.85;;
11711;SDS011;5912;51.034;6.984;2022-11-15T00:29:25;5.47;;;4.63;;
11711;SDS011;5912;51.034;6.984;2022-11-15T00:31:50;5.68;;;4.90;;
11711;SDS011;5912;51.034;6.984;2022-11-15T00:34:15;5.03;;;4.38;;
11711;SDS011;5912;51.034;6.984;2022-11-15T00:36:41;5.78;;;4.55;;
11711;SDS011;5912;51.034;6.984;2022-11-15T00:39:06;6.45;;;4.63;;
11711;SDS011;5912;51.034;6.984;2022-11-15T00:41:31;6.38;;;5.00;;
11711;SDS011;5912;51.034;6.984;2022-11-15T00:43:56;5.93;;;4.45;;
11711;SDS011;5912;51.034;6.984;2022-11-15T00:46:22;4.90;;;4.03;;
11711;SDS011;5912;51.034;6.984;2022-11-15T00:48:47;6.63;;;4.80;;
11711;SDS011;5912;51.034;6.984;2022-11-15T00:51:12;6.38;;;4.40;;
11711;SDS011;5912;51.034;6.984;2022-11-15T00:53:38;6.82;;;4.28;;
11711;SDS011;5912;51.034;6.984;2022-11-15T00:56:03;5.88;;;4.55;;
11711;SDS011;5912;51.034;6.984;2022-11-15T00:58:29;6.75;;;4.40;;
11711;SDS011;5912;51.034;6.984;2022-11-15T01:00:54;5.38;;;4.05;;
11711;SDS011;5912;51.034;6.984;2022-11-15T01:03:20;8.65;;;5.07;;
11711;SDS011;5912;51.034;6.984;2022-11-15T01:05:45;7.05;;;5.10;;
11711;SDS011;5912;51.034;6.984;2022-11-15T01:08:14;5.60;;;4.53;;
11711;SDS011;5912;51.034;6.984;2022-11-15T01:10:40;6.20;;;4.38;;
11711;SDS011;5912;51.034;6.984;2022-11-15T01:13:06;5.65;;;4.57;;
11711;SDS011;5912;51.034;6.984;2022-11-15T01:15:31;7.03;;;4.90;;
11711;SDS011;5912;51.034;6.984;2022-11-15T01:17:57;5.47;;;4.72;;
11711;SDS011;5912;51.034;6.984;2022-11-15T01:20:22;6.78;;;4.90;;
11711;SDS011;5912;51.034;6.984;2022-11-15T01:22:47;7.75;;;4.82;;
11711;SDS011;5912;51.034;6.984;2022-11-15T01:25:13;5.35;;;4.25;;
11711;SDS011;5912;51.034;6.984;2022-11-15T01:33:56;7.05;;;4.47;;
11711;SDS011;5912;51.034;6.984;2022-11-15T01:36:22;7.00;;;4.90;;
11711;SDS011;5912;51.034;6.984;2022-11-15T01:38:57;6.72;;;4.63;;
11711;SDS011;5912;51.034;6.984;2022-11-15T01:41:27;6.18;;;4.82;;
11711;SDS011;5912;51.034;6.984;2022-11-15T01:43:55;5.78;;;4.95;;
11711;SDS011;5912;51.034;6.984;2022-11-15T01:46:24;6.93;;;4.60;;
11711;SDS011;5912;51.034;6.984;2022-11-15T01:49:04;7.25;;;4.68;;
11711;SDS011;5912;51.034;6.984;2022-11-15T01:51:35;6.75;;;4.55;;
11711;SDS011;5912;51.034;6.984;2022-11-15T01:54:05;7.32;;;4.75;;
11711;SDS011;5912;51.034;6.984;2022-11-15T01:56:41;6.68;;;4.38;;
11711;SDS011;5912;51.034;6.984;2022-11-15T01:59:11;8.02;;;4.93;;
11711;SDS011;5912;51.034;6.984;2022-11-15T02:01:37;7.95;;;5.07;;
11711;SDS011;5912;51.034;6.984;2022-11-15T02:04:07;6.80;;;4.97;;
11711;SDS011;5912;51.034;6.984;2022-11-15T02:06:37;6.25;;;4.63;;
11711;SDS011;5912;51.034;6.984;2022-11-15T02:09:03;6.55;;;4.97;;
11711;SDS011;5912;51.034;6.984;2022-11-15T02:11:29;6.07;;;4.75;;
11711;SDS011;5912;51.034;6.984;2022-11-15T02:13:55;6.28;;;4.80;;
11711;SDS011;5912;51.034;6.984;2022-11-15T02:16:28;5.38;;;4.22;;
11711;SDS011;5912;51.034;6.984;2022-11-15T02:19:10;7.28;;;5.07;;
11711;SDS011;5912;51.034;6.984;2022-11-15T02:30:18;5.88;;;4.55;;
11711;SDS011;5912;51.034;6.984;2022-11-15T02:38:06;6.05;;;4.70;;
11711;SDS011;5912;51.034;6.984;2022-11-15T02:44:01;5.57;;;4.00;;
11711;SDS011;5912;51.034;6.984;2022-11-15T02:46:42;7.47;;;4.90;;
11711;SDS011;5912;51.034;6.984;2022-11-15T02:50:03;6.47;;;4.38;;
11711;SDS011;5912;51.034;6.984;2022-11-15T02:52:34;6.10;;;4.05;;
11711;SDS011;5912;51.034;6.984;2022-11-15T02:54:59;6.80;;;4.32;;
11711;SDS011;5912;51.034;6.984;2022-11-15T03:00:07;6.65;;;4.30;;
11711;SDS011;5912;51.034;6.984;2022-11-15T03:11:15;7.57;;;4.20;;
11711;SDS011;5912;51.034;6.984;2022-11-15T03:19:02;5.60;;;4.32;;
11711;SDS011;5912;51.034;6.984;2022-11-15T03:21:36;4.82;;;4.13;;
11711;SDS011;5912;51.034;6.984;2022-11-15T03:24:05;4.60;;;3.70;;
11711;SDS011;5912;51.034;6.984;2022-11-15T03:26:33;4.85;;;4.30;;
11711;SDS011;5912;51.034;6.984;2022-11-15T03:29:03;5.13;;;3.80;;
11711;SDS011;5912;51.034;6.984;2022-11-15T03:31:34;4.70;;;4.07;;
11711;SDS011;5912;51.034;6.984;2022-11-15T03:34:47;6.30;;;4.32;;
11711;SDS011;5912;51.034;6.984;2022-11-15T03:37:24;5.20;;;3.78;;
11711;SDS011;5912;51.034;6.984;2022-11-15T03:39:55;6.85;;;4.50;;
11711;SDS011;5912;51.034;6.984;2022-11-15T03:42:29;4.97;;;3.58;;
11711;SDS011;5912;51.034;6.984;2022-11-15T03:45:03;5.13;;;3.70;;
11711;SDS011;5912;51.034;6.984;2022-11-15T03:47:41;6.28;;;4.18;;
11711;SDS011;5912;51.034;6.984;2022-11-15T03:50:16;5.45;;;3.97;;
11711;SDS011;5912;51.034;6.984;2022-11-15T03:52:47;10.35;;;4.30;;
11711;SDS011;5912;51.034;6.984;2022-11-15T03:55:15;6.82;;;3.95;;
11711;SDS011;5912;51.034;6.984;2022-11-15T03:57:43;3.92;;;3.53;;
11711;SDS011;5912;51.034;6.984;2022-11-15T04:00:09;5.53;;;4.40;;
11711;SDS011;5912;51.034;6.984;2022-11-15T04:02:35;6.05;;;3.92;;
11711;SDS011;5912;51.034;6.984;2022-11-15T04:05:01;5.47;;;4.18;;
11711;SDS011;5912;51.034;6.984;2022-11-15T04:07:26;5.20;;;3.63;;
11711;SDS011;5912;51.034;6.984;2022-11-15T04:09:51;4.28;;;3.40;;
11711;SDS011;5912;51.034;6.984;2022-11-15T04:12:32;4.95;;;3.67;;
11711;SDS011;5912;51.034;6.984;2022-11-15T04:15:03;3.95;;;3.45;;
11711;SDS011;5912;51.034;6.984;2022-11-15T04:18:07;4.15;;;3.50;;
11711;SDS011;5912;51.034;6.984;2022-11-15T04:20:26;4.10;;;3.70;;
11711;SDS011;5912;51.034;6.984;2022-11-15T04:23:13;5.28;;;3.65;;
11711;SDS011;5912;51.034;6.984;2022-11-15T04:25:59;4.28;;;3.60;;
11711;SDS011;5912;51.034;6.984;2022-11-15T04:28:26;5.60;;;4.00;;
11711;SDS011;5912;51.034;6.984;2022-11-15T04:30:52;4.68;;;4.05;;
11711;SDS011;5912;51.034;6.984;2022-11-15T04:33:18;4.30;;;3.80;;
11711;SDS011;5912;51.034;6.984;2022-11-15T04:35:43;6.18;;;3.97;;
11711;SDS011;5912;51.034;6.984;2022-11-15T04:38:29;6.18;;;4.10;;
11711;SDS011;5912;51.034;6.984;2022-11-15T04:40:54;5.78;;;4.22;;
11711;SDS011;5912;51.034;6.984;2022-11-15T04:43:19;6.15;;;4.15;;
11711;SDS011;5912;51.034;6.984;2022-11-15T04:45:45;5.85;;;4.38;;
11711;SDS011;5912;51.034;6.984;2022-11-15T04:48:10;4.03;;;3.60;;
11711;SDS011;5912;51.034;6.984;2022-11-15T04:50:35;5.07;;;4.05;;
11711;SDS011;5912;51.034;6.984;2022-11-15T04:53:01;6.38;;;4.35;;
11711;SDS011;5912;51.034;6.984;2022-11-15T04:55:26;4.78;;;4.22;;
11711;SDS011;5912;51.034;6.984;2022-11-15T04:57:58;6.78;;;4.10;;
11711;SDS011;5912;51.034;6.984;2022-11-15T05:00:24;6.25;;;4.10;;
11711;SDS011;5912;51.034;6.984;2022-11-15T05:02:51;5.63;;;3.80;;
11711;SDS011;5912;51.034;6.984;2022-11-15T05:05:35;4.55;;;3.85;;
11711;SDS011;5912;51.034;6.984;2022-11-15T05:08:01;4.50;;;3.67;;
11711;SDS011;5912;51.034;6.984;2022-11-15T05:10:27;4.55;;;3.92;;
11711;SDS011;5912;51.034;6.984;2022-11-15T05:12:52;4.50;;;3.78;;
11711;SDS011;5912;51.034;6.984;2022-11-15T05:15:17;6.47;;;4.13;;
11711;SDS011;5912;51.034;6.984;2022-11-15T05:17:43;4.72;;;3.97;;
11711;SDS011;5912;51.034;6.984;2022-11-15T05:20:08;4.70;;;3.78;;
11711;SDS011;5912;51.034;6.984;2022-11-15T05:22:34;4.38;;;3.70;;
11711;SDS011;5912;51.034;6.984;2022-11-15T05:25:00;4.82;;;4.30;;
11711;SDS011;5912;51.034;6.984;2022-11-15T05:27:25;6.35;;;3.72;;
11711;SDS011;5912;51.034;6.984;2022-11-15T05:29:50;4.55;;;3.88;;
11711;SDS011;5912;51.034;6.984;2022-11-15T05:32:16;4.53;;;4.13;;
11711;SDS011;5912;51.034;6.984;2022-11-15T05:34:42;4.35;;;3.78;;
11711;SDS011;5912;51.034;6.984;2022-11-15T05:37:08;4.10;;;3.70;;
11711;SDS011;5912;51.034;6.984;2022-11-15T05:39:34;5.78;;;4.03;;
11711;SDS011;5912;51.034;6.984;2022-11-15T05:42:17;4.18;;;3.78;;
11711;SDS011;5912;51.034;6.984;2022-11-15T05:44:44;4.32;;;3.85;;
11711;SDS011;5912;51.034;6.984;2022-11-15T05:47:14;3.95;;;3.53;;
11711;SDS011;5912;51.034;6.984;2022-11-15T05:49:44;3.63;;;3.22;;
11711;SDS011;5912;51.034;6.984;2022-11-15T05:52:11;5.25;;;3.65;;
11711;SDS011;5912;51.034;6.984;2022-11-15T05:54:41;4.43;;;3.30;;
11711;SDS011;5912;51.034;6.984;2022-11-15T05:57:07;3.80;;;3.40;;
11711;SDS011;5912;51.034;6.984;2022-11-15T05:59:32;4.15;;;3.70;;
11711;SDS011;5912;51.034;6.984;2022-11-15T06:01:59;4.40;;;3.33;;
11711;SDS011;5912;51.034;6.984;2022-11-15T06:04:24;3.88;;;3.08;;
11711;SDS011;5912;51.034;6.984;2022-11-15T06:06:50;4.05;;;3.10;;
11711;SDS011;5912;51.034;6.984;2022-11-15T06:09:15;4.32;;;3.00;;
11711;SDS011;5912;51.034;6.984;2022-11-15T06:11:40;4.07;;;3.45;;
11711;SDS011;5912;51.034;6.984;2022-11-15T06:14:06;4.38;;;3.05;;
11711;SDS011;5912;51.034;6.984;2022-11-15T06:16:31;4.82;;;3.30;;
11711;SDS011;5912;51.034;6.984;2022-11-15T06:18:57;3.05;;;2.75;;
11711;SDS011;5912;51.034;6.984;2022-11-15T06:21:22;4.18;;;3.20;;
11711;SDS011;5912;51.034;6.984;2022-11-15T06:23:48;3.63;;;3.00;;
11711;SDS011;5912;51.034;6.984;2022-11-15T06:26:13;3.97;;;3.10;;
11711;SDS011;5912;51.034;6.984;2022-11-15T06:28:38;3.35;;;3.05;;
11711;SDS011;5912;51.034;6.984;2022-11-15T06:31:08;4.03;;;3.17;;
11711;SDS011;5912;51.034;6.984;2022-11-15T06:33:36;3.17;;;2.92;;
11711;SDS011;5912;51.034;6.984;2022-11-15T06:36:06;3.58;;;3.15;;
11711;SDS011;5912;51.034;6.984;2022-11-15T06:38:33;3.80;;;3.40;;
11711;SDS011;5912;51.034;6.984;2022-11-15T06:41:03;4.85;;;3.50;;
11711;SDS011;5912;51.034;6.984;2022-11-15T06:43:30;3.83;;;3.33;;
11711;SDS011;5912;51.034;6.984;2022-11-15T06:45:59;3.97;;;3.08;;
11711;SDS011;5912;51.034;6.984;2022-11-15T06:48:26;3.35;;;2.97;;
11711;SDS011;5912;51.034;6.984;2022-11-15T06:50:52;3.35;;;2.88;;
11711;SDS011;5912;51.034;6.984;2022-11-15T06:53:19;2.95;;;2.38;;
11711;SDS011;5912;51.034;6.984;2022-11-15T06:55:44;3.75;;;2.90;;
11711;SDS011;5912;51.034;6.984;2022-11-15T06:58:10;3.33;;;2.60;;
11711;SDS011;5912;51.034;6.984;2022-11-15T07:00:35;4.82;;;2.70;;
11711;SDS011;5912;51.034;6.984;2022-11-15T07:03:01;3.92;;;3.00;;
11711;SDS011;5912;51.034;6.984;2022-11-15T07:05:27;3.40;;;2.63;;
11711;SDS011;5912;51.034;6.984;2022-11-15T07:07:53;3.40;;;2.70;;
11711;SDS011;5912;51.034;6.984;2022-11-15T07:10:20;4.07;;;2.88;;
11711;SDS011;5912;51.034;6.984;2022-11-15T07:12:47;3.13;;;2.83;;
11711;SDS011;5912;51.034;6.984;2022-11-15T07:15:13;4.00;;;2.75;;
11711;SDS011;5912;51.034;6.984;2022-11-15T07:17:39;3.58;;;3.20;;
11711;SDS011;5912;51.034;6.984;2022-11-15T07:20:05;3.25;;;2.70;;
11711;SDS011;5912;51.034;6.984;2022-11-15T07:22:31;4.22;;;2.72;;
11711;SDS011;5912;51.034;6.984;2022-11-15T07:24:56;2.72;;;2.40;;
11711;SDS011;5912;51.034;6.984;2022-11-15T07:27:21;4.03;;;2.72;;
11711;SDS011;5912;51.034;6.984;2022-11-15T07:29:47;3.20;;;2.88;;
11711;SDS011;5912;51.034;6.984;2022-11-15T07:32:12;2.72;;;2.53;;
11711;SDS011;5912;51.034;6.984;2022-11-15T07:34:37;3.25;;;2.67;;
11711;SDS011;5912;51.034;6.984;2022-11-15T07:37:03;4.47;;;2.70;;
11711;SDS011;5912;51.034;6.984;2022-11-15T07:39:28;3.42;;;2.55;;
11711;SDS011;5912;51.034;6.984;2022-11-15T07:41:53;3.10;;;2.80;;
11711;SDS011;5912;51.034;6.984;2022-11-15T07:44:39;2.90;;;2.33;;
11711;SDS011;5912;51.034;6.984;2022-11-15T07:47:04;3.13;;;2.63;;
11711;SDS011;5912;51.034;6.984;2022-11-15T07:49:29;4.30;;;2.90;;
11711;SDS011;5912;51.034;6.984;2022-11-15T07:51:55;2.88;;;2.40;;
11711;SDS011;5912;51.034;6.984;2022-11-15T07:54:21;2.95;;;2.35;;
11711;SDS011;5912;51.034;6.984;2022-11-15T07:56:46;2.95;;;2.20;;
11711;SDS011;5912;51.034;6.984;2022-11-15T07:59:11;4.35;;;2.65;;
11711;SDS011;5912;51.034;6.984;2022-11-15T08:01:37;4.93;;;2.08;;
11711;SDS011;5912;51.034;6.984;2022-11-15T08:04:02;2.35;;;2.15;;
11711;SDS011;5912;51.034;6.984;2022-11-15T08:06:27;3.30;;;2.47;;
11711;SDS011;5912;51.034;6.984;2022-11-15T08:08:53;2.55;;;2.30;;
11711;SDS011;5912;51.034;6.984;2022-11-15T08:11:18;2.70;;;2.38;;
11711;SDS011;5912;51.034;6.984;2022-11-15T08:13:43;2.95;;;2.25;;
11711;SDS011;5912;51.034;6.984;2022-11-15T08:16:09;2.85;;;2.47;;
11711;SDS011;5912;51.034;6.984;2022-11-15T08:18:34;3.30;;;2.30;;
11711;SDS011;5912;51.034;6.984;2022-11-15T08:21:00;5.03;;;3.03;;
11711;SDS011;5912;51.034;6.984;2022-11-15T08:23:26;3.80;;;2.78;;
11711;SDS011;5912;51.034;6.984;2022-11-15T08:25:52;3.67;;;2.35;;
11711;SDS011;5912;51.034;6.984;2022-11-15T08:28:17;3.53;;;2.17;;
11711;SDS011;5912;51.034;6.984;2022-11-15T08:30:43;2.75;;;2.40;;
11711;SDS011;5912;51.034;6.984;2022-11-15T08:33:11;2.60;;;2.33;;
11711;SDS011;5912;51.034;6.984;2022-11-15T08:35:38;4.10;;;2.50;;
11711;SDS011;5912;51.034;6.984;2022-11-15T08:38:05;2.72;;;2.08;;
11711;SDS011;5912;51.034;6.984;2022-11-15T08:40:30;2.88;;;2.20;;
11711;SDS011;5912;51.034;6.984;2022-11-15T08:42:55;3.67;;;1.80;;
11711;SDS011;5912;51.034;6.984;2022-11-15T08:45:21;3.05;;;2.20;;
11711;SDS011;5912;51.034;6.984;2022-11-15T08:47:46;2.10;;;1.90;;
11711;SDS011;5912;51.034;6.984;2022-11-15T08:50:11;2.22;;;1.70;;
11711;SDS011;5912;51.034;6.984;2022-11-15T08:52:37;2.83;;;2.28;;
11711;SDS011;5912;51.034;6.984;2022-11-15T08:55:02;3.40;;;1.98;;
11711;SDS011;5912;51.034;6.984;2022-11-15T08:57:28;2.10;;;1.67;;
11711;SDS011;5912;51.034;6.984;2022-11-15T08:59:55;3.63;;;2.40;;
11711;SDS011;5912;51.034;6.984;2022-11-15T09:02:20;3.33;;;2.00;;
11711;SDS011;5912;51.034;6.984;2022-11-15T09:04:46;2.45;;;1.70;;
11711;SDS011;5912;51.034;6.984;2022-11-15T09:07:11;1.77;;;1.67;;
11711;SDS011;5912;51.034;6.984;2022-11-15T09:09:38;2.50;;;1.70;;
11711;SDS011;5912;51.034;6.984;2022-11-15T09:12:04;2.90;;;1.80;;
11711;SDS011;5912;51.034;6.984;2022-11-15T09:14:31;2.42;;;1.48;;
11711;SDS011;5912;51.034;6.984;2022-11-15T09:16:56;2.33;;;1.70;;
11711;SDS011;5912;51.034;6.984;2022-11-15T09:19:22;2.92;;;1.80;;
11711;SDS011;5912;51.034;6.984;2022-11-15T09:21:47;3.28;;;1.88;;
11711;SDS011;5912;51.034;6.984;2022-11-15T09:24:12;3.10;;;2.00;;
11711;SDS011;5912;51.034;6.984;2022-11-15T09:26:38;4.40;;;1.83;;
11711;SDS011;5912;51.034;6.984;2022-11-15T09:29:04;3.67;;;2.08;;
11711;SDS011;5912;51.034;6.984;2022-11-15T09:31:29;3.15;;;1.90;;
11711;SDS011;5912;51.034;6.984;2022-11-15T09:33:55;3.38;;;1.90;;
11711;SDS011;5912;51.034;6.984;2022-11-15T09:36:20;3.63;;;1.63;;
11711;SDS011;5912;51.034;6.984;2022-11-15T09:38:46;4.15;;;1.90;;
11711;SDS011;5912;51.034;6.984;2022-11-15T09:49:03;3.05;;;1.77;;
11711;SDS011;5912;51.034;6.984;2022-11-15T09:57:14;2.50;;;1.10;;
11711;SDS011;5912;51.034;6.984;2022-11-15T10:02:55;4.35;;;1.45;;
11711;SDS011;5912;51.034;6.984;2022-11-15T10:05:32;3.33;;;1.85;;
11711;SDS011;5912;51.034;6.984;2022-11-15T10:11:07;2.60;;;1.65;;
11711;SDS011;5912;51.034;6.984;2022-11-15T10:13:36;2.45;;;1.02;;
11711;SDS011;5912;51.034;6.984;2022-11-15T10:22:50;1.52;;;0.73;;
11711;SDS011;5912;51.034;6.984;2022-11-15T10:24:49;4.10;;;1.30;;
11711;SDS011;5912;51.034;6.984;2022-11-15T10:27:18;1.55;;;0.80;;
11711;SDS011;5912;51.034;6.984;2022-11-15T10:29:48;2.30;;;1.17;;
11711;SDS011;5912;51.034;6.984;2022-11-15T10:32:15;1.15;;;0.70;;
11711;SDS011;5912;51.034;6.984;2022-11-15T10:34:42;3.47;;;1.27;;
11711;SDS011;5912;51.034;6.984;2022-11-15T10:37:08;4.53;;;1.70;;
11711;SDS011;5912;51.034;6.984;2022-11-15T10:39:33;2.40;;;1.17;;
11711;SDS011;5912;51.034;6.984;2022-11-15T10:42:14;2.78;;;1.08;;
11711;SDS011;5912;51.034;6.984;2022-11-15T10:44:50;1.95;;;0.90;;
11711;SDS011;5912;51.034;6.984;2022-11-15T10:47:23;2.45;;;0.98;;
11711;SDS011;5912;51.034;6.984;2022-11-15T10:49:57;3.00;;;1.35;;
11711;SDS011;5912;51.034;6.984;2022-11-15T10:52:32;3.95;;;1.42;;
11711;SDS011;5912;51.034;6.984;2022-11-15T10:55:05;2.45;;;0.90;;
11711;SDS011;5912;51.034;6.984;2022-11-15T10:57:53;2.00;;;0.70;;
11711;SDS011;5912;51.034;6.984;2022-11-15T11:00:39;1.30;;;0.65;;
11711;SDS011;5912;51.034;6.984;2022-11-15T11:05:48;4.68;;;1.25;;
11711;SDS011;5912;51.034;6.984;2022-11-15T11:08:35;3.35;;;0.73;;
11711;SDS011;5912;51.034;6.984;2022-11-15T11:11:02;2.08;;;0.82;;
11711;SDS011;5912;51.034;6.984;2022-11-15T11:18:51;1.80;;;0.93;;
11711;SDS011;5912;51.034;6.984;2022-11-15T11:21:26;1.40;;;0.68;;
11711;SDS011;5912;51.034;6.984;2022-11-15T11:23:55;3.70;;;1.58;;
11711;SDS011;5912;51.034;6.984;2022-11-15T11:32:03;3.17;;;1.33;;
11711;SDS011;5912;51.034;6.984;2022-11-15T11:35:14;5.03;;;1.80;;
11711;SDS011;5912;51.034;6.984;2022-11-15T11:37:57;4.00;;;1.33;;
11711;SDS011;5912;51.034;6.984;2022-11-15T11:49:25;1.40;;;0.80;;
11711;SDS011;5912;51.034;6.984;2022-11-15T11:58:33;2.70;;;1.15;;
11711;SDS011;5912;51.034;6.984;2022-11-15T12:00:46;5.00;;;1.98;;
11711;SDS011;5912;51.034;6.984;2022-11-15T12:03:28;3.10;;;1.08;;
11711;SDS011;5912;51.034;6.984;2022-11-15T12:06:01;4.03;;;1.25;;
11711;SDS011;5912;51.034;6.984;2022-11-15T12:13:45;3.10;;;1.10;;
11711;SDS011;5912;51.034;6.984;2022-11-15T12:18:42;3.67;;;1.10;;
11711;SDS011;5912;51.034;6.984;2022-11-15T12:21:17;2.13;;;0.63;;
11711;SDS011;5912;51.034;6.984;2022-11-15T12:23:52;1.30;;;0.80;;
11711;SDS011;5912;51.034;6.984;2022-11-15T12:26:26;2.03;;;0.90;;
11711;SDS011;5912;51.034;6.984;2022-11-15T12:28:58;1.95;;;0.80;;
11711;SDS011;5912;51.034;6.984;2022-11-15T12:31:40;3.22;;;0.95;;
11711;SDS011;5912;51.034;6.984;2022-11-15T12:36:46;3.38;;;1.05;;
11711;SDS011;5912;51.034;6.984;2022-11-15T12:39:13;1.30;;;0.90;;
11711;SDS011;5912;51.034;6.984;2022-11-15T12:41:41;1.83;;;0.85;;
11711;SDS011;5912;51.034;6.984;2022-11-15T12:44:11;1.52;;;0.75;;
11711;SDS011;5912;51.034;6.984;2022-11-15T13:02:17;2.15;;;0.60;;
11711;SDS011;5912;51.034;6.984;2022-11-15T13:04:46;1.33;;;0.60;;
11711;SDS011;5912;51.034;6.984;2022-11-15T13:13:02;2.17;;;1.15;;
11711;SDS011;5912;51.034;6.984;2022-11-15T13:20:44;2.55;;;0.63;;
11711;SDS011;5912;51.034;6.984;2022-11-15T13:23:11;2.80;;;0.80;;
11711;SDS011;5912;51.034;6.984;2022-11-15T13:28:45;1.73;;;0.82;;
11711;SDS011;5912;51.034;6.984;2022-11-15T13:33:48;1.50;;;0.80;;
11711;SDS011;5912;51.034;6.984;2022-11-15T13:36:21;3.53;;;1.05;;
11711;SDS011;5912;51.034;6.984;2022-11-15T13:39:02;1.27;;;0.73;;
11711;SDS011;5912;51.034;6.984;2022-11-15T13:41:30;2.67;;;1.00;;
11711;SDS011;5912;51.034;6.984;2022-11-15T13:43:57;1.00;;;0.90;;
11711;SDS011;5912;51.034;6.984;2022-11-15T13:46:24;1.65;;;1.17;;
11711;SDS011;5912;51.034;6.984;2022-11-15T13:48:56;1.85;;;1.10;;
11711;SDS011;5912;51.034;6.984;2022-11-15T13:54:35;1.75;;;1.20;;
11711;SDS011;5912;51.034;6.984;2022-11-15T13:57:14;1.98;;;1.27;;
11711;SDS011;5912;51.034;6.984;2022-11-15T13:59:45;1.75;;;1.20;;
11711;SDS011;5912;51.034;6.984;2022-11-15T14:02:14;1.55;;;1.30;;
11711;SDS011;5912;51.034;6.984;2022-11-15T14:04:53;2.75;;;1.20;;
11711;SDS011;5912;51.034;6.984;2022-11-15T14:07:22;2.35;;;1.50;;
11711;SDS011;5912;51.034;6.984;2022-11-15T14:09:49;3.35;;;1.23;;
11711;SDS011;5912;51.034;6.984;2022-11-15T14:12:22;3.72;;;1.35;;
11711;SDS011;5912;51.034;6.984;2022-11-15T14:14:54;1.40;;;1.23;;
11711;SDS011;5912;51.034;6.984;2022-11-15T14:17:21;1.83;;;1.30;;
11711;SDS011;5912;51.034;6.984;2022-11-15T14:19:59;2.55;;;1.58;;
11711;SDS011;5912;51.034;6.984;2022-11-15T14:22:25;3.42;;;1.50;;
11711;SDS011;5912;51.034;6.984;2022-11-15T14:27:44;1.65;;;1.38;;
11711;SDS011;5912;51.034;6.984;2022-11-15T14:30:33;2.45;;;1.52;;
11711;SDS011;5912;51.034;6.984;2022-11-15T14:32:58;2.03;;;1.50;;
11711;SDS011;5912;51.034;6.984;2022-11-15T14:35:24;1.60;;;1.30;;
11711;SDS011;5912;51.034;6.984;2022-11-15T14:37:49;2.33;;;1.77;;
11711;SDS011;5912;51.034;6.984;2022-11-15T14:40:19;2.17;;;1.30;;
11711;SDS011;5912;51.034;6.984;2022-11-15T14:42:46;4.40;;;1.40;;
11711;SDS011;5912;51.034;6.984;2022-11-15T14:45:14;4.28;;;1.30;;
11711;SDS011;5912;51.034;6.984;2022-11-15T14:47:42;2.33;;;1.20;;
11711;SDS011;5912;51.034;6.984;2022-11-15T14:50:15;2.90;;;1.38;;
11711;SDS011;5912;51.034;6.984;2022-11-15T14:56:04;2.38;;;1.30;;
11711;SDS011;5912;51.034;6.984;2022-11-15T14:58:29;3.55;;;1.33;;
11711;SDS011;5912;51.034;6.984;2022-11-15T15:00:55;1.80;;;1.45;;
11711;SDS011;5912;51.034;6.984;2022-11-15T15:03:20;3.33;;;1.40;;
11711;SDS011;5912;51.034;6.984;2022-11-15T15:05:46;1.67;;;1.40;;
11711;SDS011;5912;51.034;6.984;2022-11-15T15:08:11;1.73;;;1.38;;
11711;SDS011;5912;51.034;6.984;2022-11-15T15:10:38;2.15;;;1.70;;
11711;SDS011;5912;51.034;6.984;2022-11-15T15:13:21;2.92;;;1.30;;
11711;SDS011;5912;51.034;6.984;2022-11-15T15:15:48;1.65;;;1.40;;
11711;SDS011;5912;51.034;6.984;2022-11-15T15:18:15;2.80;;;1.42;;
11711;SDS011;5912;51.034;6.984;2022-11-15T15:20:41;5.28;;;1.52;;
11711;SDS011;5912;51.034;6.984;2022-11-15T15:23:11;1.52;;;1.20;;
11711;SDS011;5912;51.034;6.984;2022-11-15T15:25:43;2.10;;;1.30;;
11711;SDS011;5912;51.034;6.984;2022-11-15T15:28:10;4.63;;;1.30;;
11711;SDS011;5912;51.034;6.984;2022-11-15T15:30:37;1.63;;;1.27;;
11711;SDS011;5912;51.034;6.984;2022-11-15T15:33:02;2.63;;;1.33;;
11711;SDS011;5912;51.034;6.984;2022-11-15T15:35:29;3.53;;;1.30;;
11711;SDS011;5912;51.034;6.984;2022-11-15T16:08:59;1.58;;;1.23;;
11711;SDS011;5912;51.034;6.984;2022-11-15T16:15:54;1.75;;;1.10;;
11711;SDS011;5912;51.034;6.984;2022-11-15T16:22:44;2.60;;;1.38;;
11711;SDS011;5912;51.034;6.984;2022-11-15T16:26:24;1.58;;;1.40;;
